createdAt,value
2023-05-02T00:02:15.245Z,9.70
2023-05-02T00:04:42.123Z,9.70
2023-05-02T00:07:09.032Z,9.70
2023-05-02T00:09:35.615Z,9.60
2023-05-02T00:12:02.175Z,9.60
2023-05-02T00:14:28.779Z,9.60
2023-05-02T00:16:55.468Z,9.60
2023-05-02T00:19:22.174Z,9.60
2023-05-02T00:21:48.786Z,9.60
2023-05-02T00:24:17.204Z,9.50
2023-05-02T00:26:43.991Z,9.60
2023-05-02T00:29:10.556Z,9.50
2023-05-02T00:31:37.178Z,9.50
2023-05-02T00:34:03.863Z,9.40
2023-05-02T00:36:30.464Z,9.40
2023-05-02T00:38:57.043Z,9.40
2023-05-02T00:41:23.610Z,9.40
2023-05-02T00:43:50.191Z,9.40
2023-05-02T00:46:17.175Z,9.40
2023-05-02T00:48:44.228Z,9.40
2023-05-02T00:51:11.032Z,9.40
2023-05-02T00:53:37.897Z,9.30
2023-05-02T00:56:04.676Z,9.30
2023-05-02T00:58:31.557Z,9.30
2023-05-02T01:01:14.856Z,9.20
2023-05-02T01:03:59.426Z,9.20
2023-05-02T01:06:59.638Z,9.20
2023-05-02T01:09:37.967Z,9.20
2023-05-02T01:12:21.158Z,9.20
2023-05-02T01:14:55.535Z,9.20
2023-05-02T01:17:27.064Z,9.20
2023-05-02T01:20:00.545Z,9.20
2023-05-02T01:22:29.022Z,9.10
2023-05-02T01:25:01.094Z,9.10
2023-05-02T01:28:01.790Z,9.10
2023-05-02T01:30:30.713Z,9.10
2023-05-02T01:32:59.554Z,9.10
2023-05-02T01:35:27.264Z,9.10
2023-05-02T01:37:55.689Z,9.00
2023-05-02T01:40:23.060Z,9.00
2023-05-02T01:42:51.634Z,9.10
2023-05-02T01:45:20.535Z,9.00
2023-05-02T01:47:47.454Z,9.00
2023-05-02T01:50:23.610Z,8.90
2023-05-02T01:52:52.677Z,9.00
2023-05-02T01:55:19.939Z,8.90
2023-05-02T01:57:48.440Z,8.90
2023-05-02T02:00:18.391Z,8.90
2023-05-02T02:02:47.402Z,8.90
2023-05-02T02:05:14.507Z,8.90
2023-05-02T02:07:41.089Z,8.90
2023-05-02T02:10:08.165Z,8.90
2023-05-02T02:13:04.339Z,8.90
2023-05-02T02:15:35.248Z,8.90
2023-05-02T02:18:10.071Z,8.80
2023-05-02T02:20:37.661Z,8.90
2023-05-02T02:23:08.265Z,8.90
2023-05-02T02:25:35.832Z,8.90
2023-05-02T02:28:02.388Z,8.90
2023-05-02T02:30:29.077Z,8.80
2023-05-02T02:32:55.660Z,8.90
2023-05-02T02:35:23.375Z,8.80
2023-05-02T02:37:57.786Z,8.80
2023-05-02T02:40:27.160Z,8.90
2023-05-02T02:43:02.517Z,8.80
2023-05-02T02:45:47.141Z,8.80
2023-05-02T02:48:25.387Z,8.80
2023-05-02T02:51:03.472Z,8.80
2023-05-02T02:54:25.777Z,8.80
2023-05-02T02:57:01.531Z,8.80
2023-05-02T02:59:32.269Z,8.80
2023-05-02T03:02:12.232Z,8.80
2023-05-02T03:04:41.832Z,8.80
2023-05-02T03:07:08.920Z,8.80
2023-05-02T03:09:46.552Z,8.80
2023-05-02T03:12:13.507Z,8.80
2023-05-02T03:14:40.648Z,8.80
2023-05-02T03:17:07.800Z,8.80
2023-05-02T03:19:34.644Z,8.80
2023-05-02T03:22:01.203Z,8.70
2023-05-02T03:24:27.774Z,8.80
2023-05-02T03:26:55.916Z,8.80
2023-05-02T03:29:22.787Z,8.70
2023-05-02T03:31:49.441Z,8.70
2023-05-02T03:34:16.039Z,8.70
2023-05-02T03:36:42.577Z,8.70
2023-05-02T03:39:09.272Z,8.70
2023-05-02T03:41:35.832Z,8.70
2023-05-02T03:44:02.488Z,8.70
2023-05-02T03:46:29.170Z,8.80
2023-05-02T03:48:57.913Z,8.80
2023-05-02T03:51:24.539Z,8.70
2023-05-02T03:53:51.156Z,8.80
2023-05-02T03:56:18.846Z,8.70
2023-05-02T03:58:45.526Z,8.70
2023-05-02T04:01:18.352Z,8.70
2023-05-02T04:03:45.078Z,8.70
2023-05-02T04:06:11.776Z,8.70
2023-05-02T04:08:38.531Z,8.70
2023-05-02T04:11:05.153Z,8.70
2023-05-02T04:13:31.707Z,8.70
2023-05-02T04:15:58.299Z,8.70
2023-05-02T04:18:24.895Z,8.70
2023-05-02T04:20:51.426Z,8.80
2023-05-02T04:23:18.301Z,8.80
2023-05-02T04:25:55.265Z,8.80
2023-05-02T04:28:22.690Z,8.70
2023-05-02T04:30:50.371Z,8.70
2023-05-02T04:33:17.877Z,8.70
2023-05-02T04:35:44.475Z,8.70
2023-05-02T04:38:11.059Z,8.80
2023-05-02T04:40:37.657Z,8.70
2023-05-02T04:43:04.218Z,8.80
2023-05-02T04:45:30.780Z,8.80
2023-05-02T04:47:57.327Z,8.80
2023-05-02T04:50:24.195Z,8.80
2023-05-02T04:52:50.759Z,8.80
2023-05-02T04:55:17.330Z,8.80
2023-05-02T04:57:43.925Z,8.80
2023-05-02T05:00:11.326Z,8.80
2023-05-02T05:02:37.957Z,8.80
2023-05-02T05:05:04.983Z,8.90
2023-05-02T05:07:31.607Z,8.90
2023-05-02T05:09:58.311Z,8.90
2023-05-02T05:12:25.152Z,8.90
2023-05-02T05:14:51.710Z,9.00
2023-05-02T05:17:18.273Z,9.00
2023-05-02T05:19:45.089Z,9.00
2023-05-02T05:22:11.689Z,9.00
2023-05-02T05:24:38.251Z,9.00
2023-05-02T05:27:04.839Z,9.00
2023-05-02T05:29:34.144Z,9.00
2023-05-02T05:32:00.749Z,9.00
2023-05-02T05:34:27.357Z,9.00
2023-05-02T05:36:53.968Z,9.10
2023-05-02T05:39:20.519Z,9.10
2023-05-02T05:41:47.096Z,9.20
2023-05-02T05:44:13.666Z,9.20
2023-05-02T05:46:40.248Z,9.30
2023-05-02T05:49:06.873Z,9.30
2023-05-02T05:51:33.439Z,9.30
2023-05-02T05:54:00.087Z,9.40
2023-05-02T05:56:26.931Z,9.50
2023-05-02T05:58:53.498Z,9.50
2023-05-02T06:01:20.051Z,9.60
2023-05-02T06:03:46.806Z,9.60
2023-05-02T06:06:13.641Z,9.60
2023-05-02T06:08:40.258Z,9.60
2023-05-02T06:11:12.756Z,9.70
2023-05-02T06:13:39.313Z,9.70
2023-05-02T06:16:06.443Z,9.80
2023-05-02T06:18:33.066Z,9.80
2023-05-02T06:21:06.518Z,9.90
2023-05-02T06:23:33.330Z,10.00
2023-05-02T06:26:00.890Z,10.00
2023-05-02T06:28:27.890Z,10.10
2023-05-02T06:31:02.374Z,10.20
2023-05-02T06:33:29.514Z,10.20
2023-05-02T06:35:57.479Z,10.20
2023-05-02T06:38:25.587Z,10.20
2023-05-02T06:40:52.219Z,10.30
2023-05-02T06:43:19.153Z,10.40
2023-05-02T06:45:46.116Z,10.40
2023-05-02T06:48:12.699Z,10.40
2023-05-02T06:50:39.329Z,10.60
2023-05-02T06:53:05.989Z,10.70
2023-05-02T06:55:32.609Z,10.70
2023-05-02T06:57:59.729Z,10.70
2023-05-02T07:00:26.405Z,10.70
2023-05-02T07:02:53.178Z,10.80
2023-05-02T07:05:19.797Z,10.80
2023-05-02T07:07:46.373Z,10.90
2023-05-02T07:10:13.051Z,10.80
2023-05-02T07:12:39.746Z,10.90
2023-05-02T07:15:07.052Z,11.00
2023-05-02T07:17:33.913Z,11.00
2023-05-02T07:20:00.829Z,11.10
2023-05-02T07:22:27.669Z,11.10
2023-05-02T07:24:58.569Z,11.10
2023-05-02T07:27:25.181Z,11.10
2023-05-02T07:29:51.786Z,11.10
2023-05-02T07:32:18.481Z,11.20
2023-05-02T07:34:45.138Z,11.30
2023-05-02T07:37:11.718Z,11.40
2023-05-02T07:39:38.307Z,11.50
2023-05-02T07:42:04.863Z,11.40
2023-05-02T07:44:32.565Z,11.50
2023-05-02T07:46:59.144Z,11.60
2023-05-02T07:49:25.671Z,11.70
2023-05-02T07:51:52.249Z,11.70
2023-05-02T07:54:21.025Z,11.80
2023-05-02T07:56:47.719Z,11.90
2023-05-02T07:59:14.753Z,11.90
2023-05-02T08:01:41.833Z,12.00
2023-05-02T08:04:09.023Z,12.10
2023-05-02T08:06:35.908Z,12.10
2023-05-02T08:09:02.603Z,12.20
2023-05-02T08:11:29.213Z,12.30
2023-05-02T08:13:55.924Z,12.20
2023-05-02T08:16:22.656Z,12.30
2023-05-02T08:18:49.313Z,12.30
2023-05-02T08:21:16.332Z,12.40
2023-05-02T08:23:42.913Z,12.40
2023-05-02T08:26:09.492Z,12.40
2023-05-02T08:28:36.104Z,12.40
2023-05-02T08:31:02.727Z,12.40
2023-05-02T08:33:29.324Z,12.50
2023-05-02T08:35:55.908Z,12.60
2023-05-02T08:38:22.469Z,12.60
2023-05-02T08:40:49.156Z,12.70
2023-05-02T08:43:16.918Z,12.60
2023-05-02T08:45:44.905Z,12.50
2023-05-02T08:48:13.759Z,12.50
2023-05-02T08:50:44.797Z,12.40
2023-05-02T08:53:12.550Z,12.40
2023-05-02T08:55:40.806Z,12.30
2023-05-02T08:58:10.816Z,12.40
2023-05-02T09:00:41.801Z,12.40
2023-05-02T09:03:23.658Z,12.30
2023-05-02T09:06:00.398Z,12.50
2023-05-02T09:08:27.021Z,12.50
2023-05-02T09:10:53.723Z,12.50
2023-05-02T09:13:36.498Z,12.50
2023-05-02T09:16:08.681Z,12.60
2023-05-02T09:18:40.976Z,12.80
2023-05-02T09:21:20.733Z,12.80
2023-05-02T09:23:50.439Z,12.80
2023-05-02T09:26:22.571Z,12.80
2023-05-02T09:28:54.033Z,12.70
2023-05-02T09:33:53.246Z,12.90
2023-05-02T09:36:21.449Z,13.00
2023-05-02T09:38:50.012Z,13.00
2023-05-02T09:41:16.985Z,13.10
2023-05-02T09:43:43.765Z,13.30
2023-05-02T09:46:11.496Z,13.30
2023-05-02T09:49:07.628Z,13.30
2023-05-02T09:51:34.169Z,13.40
2023-05-02T09:54:00.693Z,13.40
2023-05-02T09:56:27.541Z,13.50
2023-05-02T09:59:13.523Z,13.50
2023-05-02T10:01:41.335Z,13.60
2023-05-02T10:04:14.147Z,13.70
2023-05-02T10:06:41.028Z,13.50
2023-05-02T10:09:09.832Z,13.50
2023-05-02T10:11:39.612Z,13.70
2023-05-02T10:14:10.022Z,13.70
2023-05-02T10:16:51.832Z,13.70
2023-05-02T10:19:25.875Z,13.70
2023-05-02T10:21:53.444Z,13.70
2023-05-02T10:24:20.904Z,13.80
2023-05-02T10:26:48.339Z,13.80
2023-05-02T10:29:15.191Z,13.80
2023-05-02T10:31:44.769Z,13.70
2023-05-02T10:34:11.887Z,13.80
2023-05-02T10:36:38.456Z,13.80
2023-05-02T10:39:06.519Z,14.00
2023-05-02T10:41:35.130Z,14.20
2023-05-02T10:44:02.746Z,14.50
2023-05-02T10:46:34.812Z,14.70
2023-05-02T10:49:05.925Z,14.90
2023-05-02T10:51:34.310Z,15.10
2023-05-02T10:54:15.817Z,15.30
2023-05-02T10:57:14.568Z,15.30
2023-05-02T10:59:42.658Z,15.30
2023-05-02T11:02:21.546Z,15.20
2023-05-02T11:05:05.300Z,15.30
2023-05-02T11:07:33.651Z,14.90
2023-05-02T11:10:18.313Z,14.80
2023-05-02T11:12:55.537Z,14.70
2023-05-02T11:15:28.021Z,14.80
2023-05-02T11:18:05.135Z,14.70
2023-05-02T11:20:31.945Z,14.70
2023-05-02T11:23:16.732Z,14.70
2023-05-02T11:25:45.082Z,14.90
2023-05-02T11:28:36.478Z,15.20
2023-05-02T11:31:04.594Z,15.60
2023-05-02T11:33:31.471Z,15.90
2023-05-02T11:35:58.466Z,15.70
2023-05-02T11:38:26.821Z,16.10
2023-05-02T11:40:58.756Z,16.30
2023-05-02T11:43:29.357Z,16.60
2023-05-02T11:45:58.735Z,16.60
2023-05-02T11:48:26.077Z,16.60
2023-05-02T11:50:55.038Z,16.70
2023-05-02T11:53:24.236Z,16.70
2023-05-02T11:55:55.849Z,16.60
2023-05-02T11:58:24.258Z,16.50
2023-05-02T12:00:52.311Z,16.50
2023-05-02T12:03:29.509Z,16.50
2023-05-02T12:05:57.728Z,16.70
2023-05-02T12:08:26.719Z,16.70
2023-05-02T12:10:55.432Z,16.50
2023-05-02T12:13:24.779Z,16.60
2023-05-02T12:15:53.641Z,16.70
2023-05-02T12:18:22.774Z,16.60
2023-05-02T12:20:53.461Z,16.60
2023-05-02T12:23:21.781Z,16.40
2023-05-02T12:25:48.821Z,16.50
2023-05-02T12:28:18.478Z,16.40
2023-05-02T12:30:48.743Z,16.50
2023-05-02T12:33:15.821Z,16.70
2023-05-02T12:35:42.894Z,16.70
2023-05-02T12:38:10.642Z,16.60
2023-05-02T12:40:37.597Z,16.60
2023-05-02T12:43:05.307Z,16.60
2023-05-02T12:45:32.078Z,16.70
2023-05-02T12:47:58.710Z,16.80
2023-05-02T12:50:45.794Z,16.70
2023-05-02T12:53:12.776Z,16.70
2023-05-02T12:55:39.556Z,17.10
2023-05-02T12:58:08.038Z,17.20
2023-05-02T13:00:37.644Z,17.50
2023-05-02T13:03:04.781Z,17.70
2023-05-02T13:05:31.471Z,17.50
2023-05-02T13:07:58.096Z,17.60
2023-05-02T13:10:25.126Z,17.80
2023-05-02T13:12:52.617Z,17.80
2023-05-02T13:15:19.626Z,18.00
2023-05-02T13:17:46.668Z,18.10
2023-05-02T13:20:13.475Z,18.10
2023-05-02T13:22:40.068Z,18.20
2023-05-02T13:25:07.895Z,18.20
2023-05-02T13:27:34.564Z,18.00
2023-05-02T13:30:02.567Z,17.80
2023-05-02T13:32:30.637Z,18.10
2023-05-02T13:34:57.246Z,18.10
2023-05-02T13:37:23.824Z,18.40
2023-05-02T13:39:50.390Z,18.60
2023-05-02T13:42:16.942Z,18.80
2023-05-02T13:44:43.512Z,18.80
2023-05-02T13:47:10.080Z,18.70
2023-05-02T13:49:36.641Z,18.90
2023-05-02T13:52:03.236Z,19.00
2023-05-02T13:54:29.813Z,18.80
2023-05-02T13:56:56.382Z,18.90
2023-05-02T13:59:23.009Z,18.90
2023-05-02T14:01:49.721Z,18.60
2023-05-02T14:04:16.307Z,18.50
2023-05-02T14:06:42.877Z,18.30
2023-05-02T14:09:09.456Z,18.10
2023-05-02T14:11:36.003Z,18.30
2023-05-02T14:14:02.557Z,18.50
2023-05-02T14:16:29.178Z,18.60
2023-05-02T14:18:55.850Z,18.60
2023-05-02T14:21:22.427Z,18.70
2023-05-02T14:23:49.002Z,18.80
2023-05-02T14:26:15.584Z,19.00
2023-05-02T14:28:42.139Z,19.10
2023-05-02T14:31:08.735Z,19.10
2023-05-02T14:33:35.282Z,19.00
2023-05-02T14:36:01.856Z,19.20
2023-05-02T14:38:28.381Z,18.90
2023-05-02T14:40:55.038Z,19.00
2023-05-02T14:43:21.780Z,18.80
2023-05-02T14:45:48.326Z,18.80
2023-05-02T14:48:14.897Z,18.70
2023-05-02T14:50:41.509Z,18.60
2023-05-02T14:53:08.089Z,18.50
2023-05-02T14:55:38.991Z,18.30
2023-05-02T14:58:09.409Z,17.80
2023-05-02T15:00:36.957Z,17.50
2023-05-02T15:03:08.105Z,16.90
2023-05-02T15:05:36.289Z,16.60
2023-05-02T15:08:03.016Z,16.10
2023-05-02T15:10:29.565Z,15.70
2023-05-02T15:12:56.242Z,15.50
2023-05-02T15:15:22.828Z,15.20
2023-05-02T15:17:49.454Z,15.00
2023-05-02T15:20:16.080Z,14.70
2023-05-02T15:22:42.669Z,14.50
2023-05-02T15:25:09.706Z,14.40
2023-05-02T15:27:36.298Z,14.40
2023-05-02T15:30:03.732Z,14.20
2023-05-02T15:32:31.279Z,14.20
2023-05-02T15:34:57.986Z,14.10
2023-05-02T15:37:24.558Z,14.00
2023-05-02T15:39:51.104Z,14.10
2023-05-02T15:42:17.896Z,14.10
2023-05-02T15:44:44.469Z,14.10
2023-05-02T15:47:11.035Z,13.90
2023-05-02T15:49:38.119Z,13.90
2023-05-02T15:52:04.721Z,13.80
2023-05-02T15:54:31.322Z,13.80
2023-05-02T15:56:57.927Z,13.70
2023-05-02T15:59:24.490Z,13.60
2023-05-02T16:01:51.098Z,13.50
2023-05-02T16:04:18.837Z,13.40
2023-05-02T16:06:45.519Z,13.30
2023-05-02T16:09:12.087Z,13.30
2023-05-02T16:11:38.666Z,13.30
2023-05-02T16:14:05.240Z,13.30
2023-05-02T16:16:32.376Z,13.20
2023-05-02T16:18:59.248Z,13.30
2023-05-02T16:21:25.864Z,13.30
2023-05-02T16:23:52.575Z,13.20
2023-05-02T16:26:19.169Z,13.10
2023-05-02T16:28:45.723Z,13.10
2023-05-02T16:31:12.310Z,13.00
2023-05-02T16:33:38.955Z,12.90
2023-05-02T16:36:06.469Z,12.80
2023-05-02T16:38:33.129Z,12.70
2023-05-02T16:41:03.600Z,12.80
2023-05-02T16:43:30.123Z,12.80
2023-05-02T16:46:04.528Z,12.80
2023-05-02T16:48:31.486Z,12.60
2023-05-02T16:50:58.342Z,12.60
2023-05-02T16:53:24.890Z,12.60
2023-05-02T16:55:51.603Z,12.60
2023-05-02T16:58:18.266Z,12.60
2023-05-02T17:00:44.925Z,12.60
2023-05-02T17:03:11.841Z,12.70
2023-05-02T17:05:38.460Z,12.70
2023-05-02T17:08:05.154Z,12.60
2023-05-02T17:10:31.754Z,12.60
2023-05-02T17:12:58.365Z,12.50
2023-05-02T17:15:25.329Z,12.40
2023-05-02T17:17:52.084Z,12.20
2023-05-02T17:20:18.810Z,12.20
2023-05-02T17:22:45.433Z,12.20
2023-05-02T17:25:12.065Z,12.20
2023-05-02T17:27:40.996Z,12.20
2023-05-02T17:30:08.443Z,12.10
2023-05-02T17:32:35.027Z,12.10
2023-05-02T17:35:01.635Z,12.10
2023-05-02T17:37:28.214Z,12.00
2023-05-02T17:39:54.813Z,12.00
2023-05-02T17:42:21.418Z,12.00
2023-05-02T17:44:47.971Z,11.90
2023-05-02T17:47:14.584Z,11.90
2023-05-02T17:49:41.151Z,11.80
2023-05-02T17:52:07.810Z,11.80
2023-05-02T17:54:34.400Z,11.70
2023-05-02T17:57:00.986Z,11.70
2023-05-02T17:59:27.594Z,11.70
2023-05-02T18:01:54.218Z,11.60
2023-05-02T18:04:20.807Z,11.70
2023-05-02T18:06:47.603Z,11.60
2023-05-02T18:09:14.176Z,11.60
2023-05-02T18:11:40.758Z,11.60
2023-05-02T18:14:07.351Z,11.50
2023-05-02T18:16:34.040Z,11.50
2023-05-02T18:19:01.198Z,11.50
2023-05-02T18:21:27.869Z,11.50
2023-05-02T18:23:54.967Z,11.50
2023-05-02T18:26:21.529Z,11.50
2023-05-02T18:28:48.125Z,11.40
2023-05-02T18:31:17.639Z,11.40
2023-05-02T18:33:44.745Z,11.40
2023-05-02T18:36:11.324Z,11.50
2023-05-02T18:38:37.941Z,11.40
2023-05-02T18:41:04.484Z,11.40
2023-05-02T18:43:32.770Z,11.40
2023-05-02T18:45:59.346Z,11.40
2023-05-02T18:48:25.982Z,11.40
2023-05-02T18:50:56.250Z,11.40
2023-05-02T18:53:22.971Z,11.40
2023-05-02T18:55:49.526Z,11.40
2023-05-02T18:58:16.205Z,11.40
2023-05-02T19:00:42.848Z,11.40
2023-05-02T19:03:09.641Z,11.40
2023-05-02T19:05:36.261Z,11.50
2023-05-02T19:08:02.907Z,11.50
2023-05-02T19:10:29.499Z,11.50
2023-05-02T19:12:56.091Z,11.50
2023-05-02T19:15:22.688Z,11.50
2023-05-02T19:17:49.618Z,11.50
2023-05-02T19:20:16.334Z,11.50
2023-05-02T19:22:42.928Z,11.40
2023-05-02T19:25:09.823Z,11.40
2023-05-02T19:27:36.683Z,11.40
2023-05-02T19:30:03.597Z,11.40
2023-05-02T19:32:30.488Z,11.30
2023-05-02T19:34:57.167Z,11.30
2023-05-02T19:37:23.732Z,11.30
2023-05-02T19:39:50.281Z,11.20
2023-05-02T19:42:16.919Z,11.10
2023-05-02T19:44:43.511Z,11.00
2023-05-02T19:47:10.086Z,10.90
2023-05-02T19:49:36.752Z,10.80
2023-05-02T19:52:03.419Z,10.90
2023-05-02T19:54:30.018Z,10.80
2023-05-02T19:56:56.699Z,10.80
2023-05-02T19:59:23.295Z,10.70
2023-05-02T20:01:50.297Z,10.70
2023-05-02T20:04:16.925Z,10.70
2023-05-02T20:06:43.499Z,10.70
2023-05-02T20:09:10.219Z,10.70
2023-05-02T20:11:36.775Z,10.60
2023-05-02T20:14:03.388Z,10.60
2023-05-02T20:16:30.040Z,10.60
2023-05-02T20:18:57.258Z,10.50
2023-05-02T20:21:24.023Z,10.50
2023-05-02T20:23:50.593Z,10.40
2023-05-02T20:26:17.181Z,10.40
2023-05-02T20:28:44.006Z,10.40
2023-05-02T20:31:10.623Z,10.30
2023-05-02T20:33:45.264Z,10.30
2023-05-02T20:36:12.722Z,10.30
2023-05-02T20:38:39.320Z,10.20
2023-05-02T20:41:05.882Z,10.10
2023-05-02T20:43:32.428Z,10.10
2023-05-02T20:46:09.182Z,10.00
2023-05-02T20:48:35.835Z,10.00
2023-05-02T20:51:02.473Z,10.00
2023-05-02T20:53:29.103Z,9.90
2023-05-02T20:55:55.674Z,9.80
2023-05-02T20:58:22.210Z,9.80
2023-05-02T21:00:48.786Z,9.80
2023-05-02T21:03:15.473Z,9.80
2023-05-02T21:05:42.105Z,9.80
2023-05-02T21:08:08.683Z,9.70
2023-05-02T21:10:35.250Z,9.70
2023-05-02T21:13:01.798Z,9.60
2023-05-02T21:15:28.384Z,9.60
2023-05-02T21:18:02.317Z,9.50
2023-05-02T21:20:29.169Z,9.40
2023-05-02T21:22:55.846Z,9.40
2023-05-02T21:25:23.490Z,9.40
2023-05-02T21:27:53.029Z,9.30
2023-05-02T21:30:19.792Z,9.30
2023-05-02T21:32:46.454Z,9.30
2023-05-02T21:35:13.075Z,9.30
2023-05-02T21:37:39.637Z,9.20
2023-05-02T21:40:07.072Z,9.20
2023-05-02T21:42:33.886Z,9.20
2023-05-02T21:45:01.478Z,9.10
2023-05-02T21:47:28.096Z,9.10
2023-05-02T21:49:56.356Z,9.10
2023-05-02T21:52:23.062Z,9.10
2023-05-02T21:54:49.610Z,9.10
2023-05-02T21:57:16.275Z,9.10
2023-05-02T21:59:42.822Z,9.00
2023-05-02T22:02:09.438Z,9.00
2023-05-02T22:04:36.037Z,9.00
2023-05-02T22:07:02.589Z,8.90
2023-05-02T22:09:32.125Z,8.80
2023-05-02T22:11:59.928Z,8.80
2023-05-02T22:14:33.696Z,8.80
2023-05-02T22:17:07.995Z,8.80
2023-05-02T22:19:34.567Z,8.70
2023-05-02T22:22:01.144Z,8.70
2023-05-02T22:24:28.181Z,8.60
2023-05-02T22:26:54.788Z,8.60
2023-05-02T22:29:21.670Z,8.60
2023-05-02T22:31:48.341Z,8.50
2023-05-02T22:34:15.077Z,8.50
2023-05-02T22:36:41.695Z,8.50
2023-05-02T22:39:08.287Z,8.50
2023-05-02T22:41:34.843Z,8.50
2023-05-02T22:44:01.371Z,8.40
2023-05-02T22:46:27.993Z,8.40
2023-05-02T22:48:55.307Z,8.30
2023-05-02T22:51:22.103Z,8.30
2023-05-02T22:53:48.701Z,8.30
2023-05-02T22:56:15.543Z,8.30
2023-05-02T22:58:42.088Z,8.20
2023-05-02T23:01:08.689Z,8.10
2023-05-02T23:03:35.376Z,8.10
2023-05-02T23:06:02.048Z,8.10
2023-05-02T23:08:28.792Z,8.10
2023-05-02T23:10:55.349Z,8.10
2023-05-02T23:13:21.904Z,8.10
2023-05-02T23:15:53.214Z,8.10
2023-05-02T23:18:20.118Z,8.00
2023-05-02T23:20:46.673Z,8.00
2023-05-02T23:23:13.332Z,8.00
2023-05-02T23:25:39.983Z,7.90
2023-05-02T23:28:06.677Z,7.90
2023-05-02T23:30:33.735Z,7.90
2023-05-02T23:33:00.703Z,7.90
2023-05-02T23:35:27.440Z,7.90
2023-05-02T23:37:54.130Z,7.90
2023-05-02T23:40:20.806Z,7.80
2023-05-02T23:42:47.415Z,7.90
2023-05-02T23:45:14.073Z,7.90
2023-05-02T23:47:40.709Z,7.90
2023-05-02T23:50:07.920Z,8.00
2023-05-02T23:52:34.540Z,8.00
2023-05-02T23:55:01.110Z,7.90
2023-05-02T23:57:29.882Z,7.90
2023-05-02T23:59:56.473Z,7.90
